Terminal Aerodrome Forecast
Issued by NWS Cleveland, OH

Home | Current Version | Previous Version | Graphics & Text | Print | Product List | Glossary On
Versions: 1 2 3 4 5 6 7 8 9 10 11 12 13 14 15 16 17 18 19 20 21 22 23 24
029
FTUS41 KCLE 191137
TAFTOL
TAF
KTOL 191137Z 1912/2012 17006KT 6SM -SHRA SCT015 OVC035
      WS020/22040KT
      TEMPO 1912/1914 3SM -SHRA BR BKN015
     FM191400 18007KT 3SM SHRA BR BKN005 OVC012 WS020/21045KT
     FM200000 21011KT 4SM -SHRA BR BKN008 OVC018 WS020/22045KT=

USA.gov is the U.S. government's official web portal to all federal, state and local government web resources and services.